sensor_id;sensor_type;location;lat;lon;timestamp;temperature;humidity
16437;DHT22;8328;52.206;21.006;2022-09-09T00:03:50;13.40;99.90
16437;DHT22;8328;52.206;21.006;2022-09-09T00:06:27;13.30;99.90
16437;DHT22;8328;52.206;21.006;2022-09-09T00:09:13;13.20;99.90
16437;DHT22;8328;52.206;21.006;2022-09-09T00:19:53;13.00;99.90
16437;DHT22;8328;52.206;21.006;2022-09-09T00:22:28;12.90;99.90
16437;DHT22;8328;52.206;21.006;2022-09-09T00:25:46;12.80;99.90
16437;DHT22;8328;52.206;21.006;2022-09-09T00:27:48;12.70;99.90
16437;DHT22;8328;52.206;21.006;2022-09-09T00:30:24;12.70;99.90
16437;DHT22;8328;52.206;21.006;2022-09-09T00:32:53;12.70;99.90
16437;DHT22;8328;52.206;21.006;2022-09-09T00:35:34;12.70;99.90
16437;DHT22;8328;52.206;21.006;2022-09-09T00:41:25;12.70;99.90
16437;DHT22;8328;52.206;21.006;2022-09-09T00:43:40;12.70;99.90
16437;DHT22;8328;52.206;21.006;2022-09-09T00:52:23;12.70;99.90
16437;DHT22;8328;52.206;21.006;2022-09-09T00:57:52;12.80;99.90
16437;DHT22;8328;52.206;21.006;2022-09-09T01:00:24;12.80;99.90
16437;DHT22;8328;52.206;21.006;2022-09-09T01:05:51;12.70;99.90
16437;DHT22;8328;52.206;21.006;2022-09-09T01:08:38;12.70;99.90
16437;DHT22;8328;52.206;21.006;2022-09-09T01:11:05;12.70;99.90
16437;DHT22;8328;52.206;21.006;2022-09-09T01:13:36;12.70;99.90
16437;DHT22;8328;52.206;21.006;2022-09-09T01:16:04;12.70;99.90
16437;DHT22;8328;52.206;21.006;2022-09-09T01:18:35;12.70;99.90
16437;DHT22;8328;52.206;21.006;2022-09-09T01:21:30;12.70;99.90
16437;DHT22;8328;52.206;21.006;2022-09-09T01:24:04;12.70;99.90
16437;DHT22;8328;52.206;21.006;2022-09-09T01:26:41;12.70;99.90
16437;DHT22;8328;52.206;21.006;2022-09-09T01:29:14;12.70;99.90
16437;DHT22;8328;52.206;21.006;2022-09-09T01:32:02;12.70;99.90
16437;DHT22;8328;52.206;21.006;2022-09-09T01:34:35;12.60;99.90
16437;DHT22;8328;52.206;21.006;2022-09-09T01:37:08;12.60;99.90
16437;DHT22;8328;52.206;21.006;2022-09-09T01:39:36;12.60;99.90
16437;DHT22;8328;52.206;21.006;2022-09-09T01:42:05;12.50;99.90
16437;DHT22;8328;52.206;21.006;2022-09-09T01:44:32;12.60;99.90
16437;DHT22;8328;52.206;21.006;2022-09-09T01:46:58;12.60;99.90
16437;DHT22;8328;52.206;21.006;2022-09-09T01:49:24;12.60;99.90
16437;DHT22;8328;52.206;21.006;2022-09-09T01:51:53;12.60;99.90
16437;DHT22;8328;52.206;21.006;2022-09-09T01:54:23;12.60;99.90
16437;DHT22;8328;52.206;21.006;2022-09-09T02:02:54;12.70;99.90
16437;DHT22;8328;52.206;21.006;2022-09-09T02:05:36;12.80;99.90
16437;DHT22;8328;52.206;21.006;2022-09-09T02:08:08;12.70;99.90
16437;DHT22;8328;52.206;21.006;2022-09-09T02:13:13;12.80;99.90
16437;DHT22;8328;52.206;21.006;2022-09-09T02:18:13;12.90;99.90
16437;DHT22;8328;52.206;21.006;2022-09-09T02:20:41;12.80;99.90
16437;DHT22;8328;52.206;21.006;2022-09-09T02:23:08;12.80;99.90
16437;DHT22;8328;52.206;21.006;2022-09-09T02:25:36;12.80;99.90
16437;DHT22;8328;52.206;21.006;2022-09-09T02:28:06;12.90;99.90
16437;DHT22;8328;52.206;21.006;2022-09-09T02:30:34;12.80;99.90
16437;DHT22;8328;52.206;21.006;2022-09-09T02:33:05;12.80;99.90
16437;DHT22;8328;52.206;21.006;2022-09-09T02:35:32;12.80;99.90
16437;DHT22;8328;52.206;21.006;2022-09-09T02:38:07;12.80;99.90
16437;DHT22;8328;52.206;21.006;2022-09-09T02:40:33;12.90;99.90
16437;DHT22;8328;52.206;21.006;2022-09-09T02:42:59;12.80;99.90
16437;DHT22;8328;52.206;21.006;2022-09-09T02:45:30;12.80;99.90
16437;DHT22;8328;52.206;21.006;2022-09-09T02:48:11;12.80;99.90
16437;DHT22;8328;52.206;21.006;2022-09-09T02:53:32;12.80;99.90
16437;DHT22;8328;52.206;21.006;2022-09-09T02:56:22;12.80;99.90
16437;DHT22;8328;52.206;21.006;2022-09-09T02:58:51;12.90;99.90
16437;DHT22;8328;52.206;21.006;2022-09-09T03:01:17;12.90;99.90
16437;DHT22;8328;52.206;21.006;2022-09-09T03:03:43;12.90;99.90
16437;DHT22;8328;52.206;21.006;2022-09-09T03:06:10;13.00;99.90
16437;DHT22;8328;52.206;21.006;2022-09-09T03:08:37;13.00;99.90
16437;DHT22;8328;52.206;21.006;2022-09-09T03:11:03;13.00;99.90
16437;DHT22;8328;52.206;21.006;2022-09-09T03:13:29;12.90;99.90
16437;DHT22;8328;52.206;21.006;2022-09-09T03:15:55;12.90;99.90
16437;DHT22;8328;52.206;21.006;2022-09-09T03:18:21;12.80;99.90
16437;DHT22;8328;52.206;21.006;2022-09-09T03:20:47;12.80;99.90
16437;DHT22;8328;52.206;21.006;2022-09-09T03:23:16;12.80;99.90
16437;DHT22;8328;52.206;21.006;2022-09-09T03:25:52;12.80;99.90
16437;DHT22;8328;52.206;21.006;2022-09-09T03:28:18;12.90;99.90
16437;DHT22;8328;52.206;21.006;2022-09-09T03:30:46;12.80;99.90
16437;DHT22;8328;52.206;21.006;2022-09-09T03:33:11;12.80;99.90
16437;DHT22;8328;52.206;21.006;2022-09-09T03:35:38;12.80;99.90
16437;DHT22;8328;52.206;21.006;2022-09-09T03:38:05;12.80;99.90
16437;DHT22;8328;52.206;21.006;2022-09-09T03:40:30;12.80;99.90
16437;DHT22;8328;52.206;21.006;2022-09-09T03:42:56;12.90;99.90
16437;DHT22;8328;52.206;21.006;2022-09-09T03:45:22;12.90;99.90
16437;DHT22;8328;52.206;21.006;2022-09-09T03:47:48;12.90;99.90
16437;DHT22;8328;52.206;21.006;2022-09-09T03:50:14;13.00;99.90
16437;DHT22;8328;52.206;21.006;2022-09-09T03:52:41;13.00;99.90
16437;DHT22;8328;52.206;21.006;2022-09-09T03:55:08;13.00;99.90
16437;DHT22;8328;52.206;21.006;2022-09-09T03:57:34;13.00;99.90
16437;DHT22;8328;52.206;21.006;2022-09-09T04:00:05;13.00;99.90
16437;DHT22;8328;52.206;21.006;2022-09-09T04:02:32;13.00;99.90
16437;DHT22;8328;52.206;21.006;2022-09-09T04:04:58;13.00;99.90
16437;DHT22;8328;52.206;21.006;2022-09-09T04:07:24;13.00;99.90
16437;DHT22;8328;52.206;21.006;2022-09-09T04:09:50;12.90;99.90
16437;DHT22;8328;52.206;21.006;2022-09-09T04:12:16;12.90;99.90
16437;DHT22;8328;52.206;21.006;2022-09-09T04:14:43;13.00;99.90
16437;DHT22;8328;52.206;21.006;2022-09-09T04:17:09;13.00;99.90
16437;DHT22;8328;52.206;21.006;2022-09-09T04:19:34;13.00;99.90
16437;DHT22;8328;52.206;21.006;2022-09-09T04:22:00;13.10;99.90
16437;DHT22;8328;52.206;21.006;2022-09-09T04:24:26;13.10;99.90
16437;DHT22;8328;52.206;21.006;2022-09-09T04:26:52;13.10;99.90
16437;DHT22;8328;52.206;21.006;2022-09-09T04:29:18;13.10;99.90
16437;DHT22;8328;52.206;21.006;2022-09-09T04:31:44;13.10;99.90
16437;DHT22;8328;52.206;21.006;2022-09-09T04:34:10;13.20;99.90
16437;DHT22;8328;52.206;21.006;2022-09-09T04:36:36;13.10;99.90
16437;DHT22;8328;52.206;21.006;2022-09-09T04:39:02;13.20;99.90
16437;DHT22;8328;52.206;21.006;2022-09-09T04:41:28;13.20;99.90
16437;DHT22;8328;52.206;21.006;2022-09-09T04:43:54;13.10;99.90
16437;DHT22;8328;52.206;21.006;2022-09-09T04:46:21;13.20;99.90
16437;DHT22;8328;52.206;21.006;2022-09-09T04:48:49;13.30;99.90
16437;DHT22;8328;52.206;21.006;2022-09-09T04:51:15;13.30;99.90
16437;DHT22;8328;52.206;21.006;2022-09-09T04:53:41;13.20;99.90
16437;DHT22;8328;52.206;21.006;2022-09-09T04:56:08;13.30;99.90
16437;DHT22;8328;52.206;21.006;2022-09-09T04:58:36;13.30;99.90
16437;DHT22;8328;52.206;21.006;2022-09-09T05:01:07;13.30;99.90
16437;DHT22;8328;52.206;21.006;2022-09-09T05:03:34;13.20;99.90
16437;DHT22;8328;52.206;21.006;2022-09-09T05:06:10;13.30;99.90
16437;DHT22;8328;52.206;21.006;2022-09-09T05:08:41;13.30;99.90
16437;DHT22;8328;52.206;21.006;2022-09-09T05:11:34;13.40;99.90
16437;DHT22;8328;52.206;21.006;2022-09-09T05:14:02;13.40;99.90
16437;DHT22;8328;52.206;21.006;2022-09-09T05:16:28;13.40;99.90
16437;DHT22;8328;52.206;21.006;2022-09-09T05:18:55;13.50;99.90
16437;DHT22;8328;52.206;21.006;2022-09-09T05:21:22;13.50;99.90
16437;DHT22;8328;52.206;21.006;2022-09-09T05:23:48;13.50;99.90
16437;DHT22;8328;52.206;21.006;2022-09-09T05:26:17;13.60;99.90
16437;DHT22;8328;52.206;21.006;2022-09-09T05:28:43;13.60;99.90
16437;DHT22;8328;52.206;21.006;2022-09-09T05:31:10;13.60;99.90
16437;DHT22;8328;52.206;21.006;2022-09-09T05:33:40;13.50;99.90
16437;DHT22;8328;52.206;21.006;2022-09-09T05:36:10;13.60;99.90
16437;DHT22;8328;52.206;21.006;2022-09-09T05:38:39;13.60;99.90
16437;DHT22;8328;52.206;21.006;2022-09-09T05:41:06;13.60;99.90
16437;DHT22;8328;52.206;21.006;2022-09-09T05:43:33;13.70;99.90
16437;DHT22;8328;52.206;21.006;2022-09-09T05:46:19;13.70;99.90
16437;DHT22;8328;52.206;21.006;2022-09-09T05:48:46;13.70;99.90
16437;DHT22;8328;52.206;21.006;2022-09-09T05:51:15;13.70;99.90
16437;DHT22;8328;52.206;21.006;2022-09-09T05:53:42;13.70;99.90
16437;DHT22;8328;52.206;21.006;2022-09-09T05:56:13;13.60;99.90
16437;DHT22;8328;52.206;21.006;2022-09-09T05:58:43;13.70;99.90
16437;DHT22;8328;52.206;21.006;2022-09-09T06:01:14;13.80;99.90
16437;DHT22;8328;52.206;21.006;2022-09-09T06:03:42;13.80;99.90
16437;DHT22;8328;52.206;21.006;2022-09-09T06:06:10;13.90;99.90
16437;DHT22;8328;52.206;21.006;2022-09-09T06:08:38;13.80;99.90
16437;DHT22;8328;52.206;21.006;2022-09-09T06:11:08;13.90;99.90
16437;DHT22;8328;52.206;21.006;2022-09-09T06:13:34;14.00;99.90
16437;DHT22;8328;52.206;21.006;2022-09-09T06:16:03;14.00;99.90
16437;DHT22;8328;52.206;21.006;2022-09-09T06:18:29;14.00;99.90
16437;DHT22;8328;52.206;21.006;2022-09-09T06:20:57;13.90;99.90
16437;DHT22;8328;52.206;21.006;2022-09-09T06:23:24;14.10;99.90
16437;DHT22;8328;52.206;21.006;2022-09-09T06:25:50;14.10;99.90
16437;DHT22;8328;52.206;21.006;2022-09-09T06:28:17;14.10;99.90
16437;DHT22;8328;52.206;21.006;2022-09-09T06:30:43;14.10;99.90
16437;DHT22;8328;52.206;21.006;2022-09-09T06:33:10;14.20;99.90
16437;DHT22;8328;52.206;21.006;2022-09-09T06:35:36;14.20;99.90
16437;DHT22;8328;52.206;21.006;2022-09-09T06:38:02;14.30;99.90
16437;DHT22;8328;52.206;21.006;2022-09-09T06:40:29;14.20;99.90
16437;DHT22;8328;52.206;21.006;2022-09-09T06:42:59;14.20;99.90
16437;DHT22;8328;52.206;21.006;2022-09-09T06:45:26;14.20;99.90
16437;DHT22;8328;52.206;21.006;2022-09-09T06:47:55;14.30;99.90
16437;DHT22;8328;52.206;21.006;2022-09-09T06:50:21;14.40;99.90
16437;DHT22;8328;52.206;21.006;2022-09-09T06:52:47;14.50;99.90
16437;DHT22;8328;52.206;21.006;2022-09-09T06:55:17;14.60;99.90
16437;DHT22;8328;52.206;21.006;2022-09-09T06:57:43;14.60;99.90
16437;DHT22;8328;52.206;21.006;2022-09-09T07:00:09;14.50;99.90
16437;DHT22;8328;52.206;21.006;2022-09-09T07:02:36;14.50;99.90
16437;DHT22;8328;52.206;21.006;2022-09-09T07:05:04;14.60;99.90
16437;DHT22;8328;52.206;21.006;2022-09-09T07:07:30;14.70;99.90
16437;DHT22;8328;52.206;21.006;2022-09-09T07:09:56;14.70;99.90
16437;DHT22;8328;52.206;21.006;2022-09-09T07:12:22;14.70;99.90
16437;DHT22;8328;52.206;21.006;2022-09-09T07:14:48;14.80;99.90
16437;DHT22;8328;52.206;21.006;2022-09-09T07:17:13;14.70;99.90
16437;DHT22;8328;52.206;21.006;2022-09-09T07:19:39;14.80;99.90
16437;DHT22;8328;52.206;21.006;2022-09-09T07:22:05;14.80;99.90
16437;DHT22;8328;52.206;21.006;2022-09-09T07:24:31;14.80;99.90
16437;DHT22;8328;52.206;21.006;2022-09-09T07:26:57;14.80;99.90
16437;DHT22;8328;52.206;21.006;2022-09-09T07:29:25;14.90;99.90
16437;DHT22;8328;52.206;21.006;2022-09-09T07:31:50;15.00;99.90
16437;DHT22;8328;52.206;21.006;2022-09-09T07:34:17;15.00;99.90
16437;DHT22;8328;52.206;21.006;2022-09-09T07:36:43;15.10;99.90
16437;DHT22;8328;52.206;21.006;2022-09-09T07:39:11;15.20;99.90
16437;DHT22;8328;52.206;21.006;2022-09-09T07:41:48;15.10;99.90
16437;DHT22;8328;52.206;21.006;2022-09-09T07:44:17;15.10;99.90
16437;DHT22;8328;52.206;21.006;2022-09-09T07:46:44;15.20;99.90
16437;DHT22;8328;52.206;21.006;2022-09-09T07:49:11;15.40;99.90
16437;DHT22;8328;52.206;21.006;2022-09-09T07:51:39;15.50;99.90
16437;DHT22;8328;52.206;21.006;2022-09-09T07:54:08;15.60;99.90
16437;DHT22;8328;52.206;21.006;2022-09-09T07:56:38;15.60;99.90
16437;DHT22;8328;52.206;21.006;2022-09-09T07:59:04;15.70;99.90
16437;DHT22;8328;52.206;21.006;2022-09-09T08:01:37;15.80;99.90
16437;DHT22;8328;52.206;21.006;2022-09-09T08:04:13;15.90;99.90
16437;DHT22;8328;52.206;21.006;2022-09-09T08:06:54;16.00;99.90
16437;DHT22;8328;52.206;21.006;2022-09-09T08:09:21;15.90;99.90
16437;DHT22;8328;52.206;21.006;2022-09-09T08:11:50;16.00;99.90
16437;DHT22;8328;52.206;21.006;2022-09-09T08:14:17;15.90;99.90
16437;DHT22;8328;52.206;21.006;2022-09-09T08:16:45;15.80;99.90
16437;DHT22;8328;52.206;21.006;2022-09-09T08:19:12;15.80;99.90
16437;DHT22;8328;52.206;21.006;2022-09-09T08:21:39;15.80;99.90
16437;DHT22;8328;52.206;21.006;2022-09-09T08:24:06;15.80;99.90
16437;DHT22;8328;52.206;21.006;2022-09-09T08:26:37;15.70;99.90
16437;DHT22;8328;52.206;21.006;2022-09-09T08:29:05;15.70;99.90
16437;DHT22;8328;52.206;21.006;2022-09-09T08:31:56;15.90;99.90
16437;DHT22;8328;52.206;21.006;2022-09-09T08:34:24;15.80;99.90
16437;DHT22;8328;52.206;21.006;2022-09-09T08:36:53;15.80;99.90
16437;DHT22;8328;52.206;21.006;2022-09-09T08:39:20;15.90;99.90
16437;DHT22;8328;52.206;21.006;2022-09-09T08:47:29;16.00;99.90
16437;DHT22;8328;52.206;21.006;2022-09-09T08:52:29;16.10;99.90
16437;DHT22;8328;52.206;21.006;2022-09-09T08:57:51;16.00;99.90
16437;DHT22;8328;52.206;21.006;2022-09-09T09:00:18;15.90;99.90
16437;DHT22;8328;52.206;21.006;2022-09-09T09:08:37;16.10;99.90
16437;DHT22;8328;52.206;21.006;2022-09-09T09:11:06;16.30;99.90
16437;DHT22;8328;52.206;21.006;2022-09-09T09:13:43;16.30;99.90
16437;DHT22;8328;52.206;21.006;2022-09-09T09:18:47;16.40;99.90
16437;DHT22;8328;52.206;21.006;2022-09-09T09:24:01;16.60;99.90
16437;DHT22;8328;52.206;21.006;2022-09-09T09:26:34;16.70;99.90
16437;DHT22;8328;52.206;21.006;2022-09-09T09:29:21;16.70;99.90
16437;DHT22;8328;52.206;21.006;2022-09-09T09:31:53;16.70;99.90
16437;DHT22;8328;52.206;21.006;2022-09-09T09:34:22;16.50;99.90
16437;DHT22;8328;52.206;21.006;2022-09-09T09:36:57;16.40;99.90
16437;DHT22;8328;52.206;21.006;2022-09-09T09:39:27;16.50;99.90
16437;DHT22;8328;52.206;21.006;2022-09-09T09:41:53;16.50;99.90
16437;DHT22;8328;52.206;21.006;2022-09-09T09:44:28;16.60;99.90
16437;DHT22;8328;52.206;21.006;2022-09-09T09:47:06;16.60;99.90
16437;DHT22;8328;52.206;21.006;2022-09-09T09:49:33;16.60;99.90
16437;DHT22;8328;52.206;21.006;2022-09-09T09:52:03;16.60;99.90
16437;DHT22;8328;52.206;21.006;2022-09-09T09:54:34;16.70;99.90
16437;DHT22;8328;52.206;21.006;2022-09-09T09:57:14;16.60;99.90
16437;DHT22;8328;52.206;21.006;2022-09-09T09:59:42;16.60;99.90
16437;DHT22;8328;52.206;21.006;2022-09-09T10:02:23;16.60;99.90
16437;DHT22;8328;52.206;21.006;2022-09-09T10:05:02;16.70;99.90
16437;DHT22;8328;52.206;21.006;2022-09-09T10:07:29;16.90;99.90
16437;DHT22;8328;52.206;21.006;2022-09-09T10:09:56;16.90;99.90
16437;DHT22;8328;52.206;21.006;2022-09-09T10:18:03;17.00;99.90
16437;DHT22;8328;52.206;21.006;2022-09-09T10:21:03;16.90;99.90
16437;DHT22;8328;52.206;21.006;2022-09-09T10:29:50;16.60;99.90
16437;DHT22;8328;52.206;21.006;2022-09-09T10:32:32;16.70;99.90
16437;DHT22;8328;52.206;21.006;2022-09-09T10:38:00;16.80;99.90
16437;DHT22;8328;52.206;21.006;2022-09-09T10:41:22;17.00;99.90
16437;DHT22;8328;52.206;21.006;2022-09-09T10:43:36;17.00;99.90
16437;DHT22;8328;52.206;21.006;2022-09-09T10:49:06;16.80;99.90
16437;DHT22;8328;52.206;21.006;2022-09-09T10:54:41;16.70;99.90
16437;DHT22;8328;52.206;21.006;2022-09-09T10:57:29;16.60;99.90
16437;DHT22;8328;52.206;21.006;2022-09-09T11:00:03;16.70;99.90
16437;DHT22;8328;52.206;21.006;2022-09-09T11:02:33;16.70;99.90
16437;DHT22;8328;52.206;21.006;2022-09-09T11:05:35;16.70;99.90
16437;DHT22;8328;52.206;21.006;2022-09-09T11:08:24;16.70;99.90
16437;DHT22;8328;52.206;21.006;2022-09-09T11:11:08;16.60;99.90
16437;DHT22;8328;52.206;21.006;2022-09-09T11:16:46;16.70;99.90
16437;DHT22;8328;52.206;21.006;2022-09-09T11:28:21;16.70;99.90
16437;DHT22;8328;52.206;21.006;2022-09-09T11:36:35;17.00;99.90
16437;DHT22;8328;52.206;21.006;2022-09-09T11:44:37;17.20;99.90
16437;DHT22;8328;52.206;21.006;2022-09-09T11:47:15;17.50;99.90
16437;DHT22;8328;52.206;21.006;2022-09-09T11:49:42;17.70;99.90
16437;DHT22;8328;52.206;21.006;2022-09-09T11:52:39;17.80;99.90
16437;DHT22;8328;52.206;21.006;2022-09-09T11:55:11;17.80;99.90
16437;DHT22;8328;52.206;21.006;2022-09-09T11:57:38;17.70;99.90
16437;DHT22;8328;52.206;21.006;2022-09-09T12:00:05;17.50;99.90
16437;DHT22;8328;52.206;21.006;2022-09-09T12:02:31;17.60;99.90
16437;DHT22;8328;52.206;21.006;2022-09-09T12:05:11;17.50;99.90
16437;DHT22;8328;52.206;21.006;2022-09-09T12:07:45;17.60;99.90
16437;DHT22;8328;52.206;21.006;2022-09-09T12:12:47;17.40;99.90
16437;DHT22;8328;52.206;21.006;2022-09-09T12:17:48;17.00;99.90
16437;DHT22;8328;52.206;21.006;2022-09-09T12:23:31;16.80;99.90
16437;DHT22;8328;52.206;21.006;2022-09-09T12:28:58;16.70;99.90
16437;DHT22;8328;52.206;21.006;2022-09-09T12:31:41;16.80;99.90
16437;DHT22;8328;52.206;21.006;2022-09-09T12:34:24;16.90;99.90
16437;DHT22;8328;52.206;21.006;2022-09-09T12:36:58;16.90;99.90
16437;DHT22;8328;52.206;21.006;2022-09-09T12:39:29;17.00;99.90
16437;DHT22;8328;52.206;21.006;2022-09-09T12:41:56;17.20;99.90
16437;DHT22;8328;52.206;21.006;2022-09-09T12:44:24;17.50;99.90
16437;DHT22;8328;52.206;21.006;2022-09-09T12:46:51;17.80;99.90
16437;DHT22;8328;52.206;21.006;2022-09-09T12:49:34;17.90;99.90
16437;DHT22;8328;52.206;21.006;2022-09-09T12:52:02;17.80;99.90
16437;DHT22;8328;52.206;21.006;2022-09-09T12:54:32;17.80;99.90
16437;DHT22;8328;52.206;21.006;2022-09-09T12:56:59;17.70;99.90
16437;DHT22;8328;52.206;21.006;2022-09-09T12:59:27;17.80;99.90
16437;DHT22;8328;52.206;21.006;2022-09-09T13:02:00;17.70;99.90
16437;DHT22;8328;52.206;21.006;2022-09-09T13:04:26;17.60;99.90
16437;DHT22;8328;52.206;21.006;2022-09-09T13:06:52;17.60;99.90
16437;DHT22;8328;52.206;21.006;2022-09-09T13:09:18;17.60;99.90
16437;DHT22;8328;52.206;21.006;2022-09-09T13:11:53;17.60;99.90
16437;DHT22;8328;52.206;21.006;2022-09-09T13:14:34;17.60;99.90
16437;DHT22;8328;52.206;21.006;2022-09-09T13:17:04;17.60;99.90
16437;DHT22;8328;52.206;21.006;2022-09-09T13:19:38;17.60;99.90
16437;DHT22;8328;52.206;21.006;2022-09-09T13:22:33;17.60;99.90
16437;DHT22;8328;52.206;21.006;2022-09-09T13:25:27;17.50;99.90
16437;DHT22;8328;52.206;21.006;2022-09-09T13:28:02;17.20;99.90
16437;DHT22;8328;52.206;21.006;2022-09-09T13:30:33;17.00;99.90
16437;DHT22;8328;52.206;21.006;2022-09-09T13:35:30;16.90;99.90
16437;DHT22;8328;52.206;21.006;2022-09-09T13:37:56;16.70;99.90
16437;DHT22;8328;52.206;21.006;2022-09-09T13:40:23;16.70;99.90
16437;DHT22;8328;52.206;21.006;2022-09-09T13:42:57;16.70;99.90
16437;DHT22;8328;52.206;21.006;2022-09-09T13:45:25;16.70;99.90
16437;DHT22;8328;52.206;21.006;2022-09-09T13:47:55;16.60;99.90
16437;DHT22;8328;52.206;21.006;2022-09-09T13:52:54;16.50;99.90
16437;DHT22;8328;52.206;21.006;2022-09-09T13:55:23;16.50;99.90
16437;DHT22;8328;52.206;21.006;2022-09-09T13:57:52;16.40;99.90
16437;DHT22;8328;52.206;21.006;2022-09-09T14:00:19;16.40;99.90
16437;DHT22;8328;52.206;21.006;2022-09-09T14:02:45;16.30;99.90
16437;DHT22;8328;52.206;21.006;2022-09-09T14:05:11;16.30;99.90
16437;DHT22;8328;52.206;21.006;2022-09-09T14:07:38;16.30;99.90
16437;DHT22;8328;52.206;21.006;2022-09-09T14:10:06;16.30;99.90
16437;DHT22;8328;52.206;21.006;2022-09-09T14:12:32;16.30;99.90
16437;DHT22;8328;52.206;21.006;2022-09-09T14:14:58;16.30;99.90
16437;DHT22;8328;52.206;21.006;2022-09-09T14:17:25;16.30;99.90
16437;DHT22;8328;52.206;21.006;2022-09-09T14:19:55;16.30;99.90
16437;DHT22;8328;52.206;21.006;2022-09-09T14:22:22;16.30;99.90
16437;DHT22;8328;52.206;21.006;2022-09-09T14:24:48;16.40;99.90
16437;DHT22;8328;52.206;21.006;2022-09-09T14:27:15;16.40;99.90
16437;DHT22;8328;52.206;21.006;2022-09-09T14:29:41;16.50;99.90
16437;DHT22;8328;52.206;21.006;2022-09-09T14:32:09;16.60;99.90
16437;DHT22;8328;52.206;21.006;2022-09-09T14:34:34;16.60;99.90
16437;DHT22;8328;52.206;21.006;2022-09-09T14:37:00;16.70;99.90
16437;DHT22;8328;52.206;21.006;2022-09-09T14:39:26;16.70;99.90
16437;DHT22;8328;52.206;21.006;2022-09-09T14:41:52;16.80;99.90
16437;DHT22;8328;52.206;21.006;2022-09-09T14:44:18;16.80;99.90
16437;DHT22;8328;52.206;21.006;2022-09-09T14:46:44;16.90;99.90
16437;DHT22;8328;52.206;21.006;2022-09-09T14:49:10;17.00;99.90
16437;DHT22;8328;52.206;21.006;2022-09-09T14:51:36;16.90;99.90
16437;DHT22;8328;52.206;21.006;2022-09-09T14:54:02;16.90;99.90
16437;DHT22;8328;52.206;21.006;2022-09-09T14:56:32;16.90;99.90
16437;DHT22;8328;52.206;21.006;2022-09-09T14:59:01;17.00;99.90
16437;DHT22;8328;52.206;21.006;2022-09-09T15:01:27;17.00;99.90
16437;DHT22;8328;52.206;21.006;2022-09-09T15:04:04;17.00;99.90
16437;DHT22;8328;52.206;21.006;2022-09-09T15:06:32;17.00;99.90
16437;DHT22;8328;52.206;21.006;2022-09-09T15:08:59;16.90;99.90
16437;DHT22;8328;52.206;21.006;2022-09-09T15:11:27;16.80;99.90
16437;DHT22;8328;52.206;21.006;2022-09-09T15:13:53;16.70;99.90
16437;DHT22;8328;52.206;21.006;2022-09-09T15:16:25;16.70;99.90
16437;DHT22;8328;52.206;21.006;2022-09-09T15:18:53;16.70;99.90
16437;DHT22;8328;52.206;21.006;2022-09-09T15:21:21;16.80;99.90
16437;DHT22;8328;52.206;21.006;2022-09-09T15:23:48;16.80;99.90
16437;DHT22;8328;52.206;21.006;2022-09-09T15:26:15;16.70;99.90
16437;DHT22;8328;52.206;21.006;2022-09-09T15:28:42;16.60;99.90
16437;DHT22;8328;52.206;21.006;2022-09-09T15:31:17;16.50;99.90
16437;DHT22;8328;52.206;21.006;2022-09-09T15:33:52;16.60;99.90
16437;DHT22;8328;52.206;21.006;2022-09-09T15:38:43;16.50;99.90
16437;DHT22;8328;52.206;21.006;2022-09-09T15:41:11;16.50;99.90
16437;DHT22;8328;52.206;21.006;2022-09-09T15:43:37;16.60;99.90
16437;DHT22;8328;52.206;21.006;2022-09-09T15:46:37;16.50;99.90
16437;DHT22;8328;52.206;21.006;2022-09-09T15:49:17;16.60;99.90
16437;DHT22;8328;52.206;21.006;2022-09-09T15:51:46;16.60;99.90
16437;DHT22;8328;52.206;21.006;2022-09-09T15:54:15;16.60;99.90
16437;DHT22;8328;52.206;21.006;2022-09-09T15:56:42;16.60;99.90
16437;DHT22;8328;52.206;21.006;2022-09-09T15:59:08;16.60;99.90
16437;DHT22;8328;52.206;21.006;2022-09-09T16:01:34;16.70;99.90
16437;DHT22;8328;52.206;21.006;2022-09-09T16:04:01;16.60;99.90
16437;DHT22;8328;52.206;21.006;2022-09-09T16:06:28;16.50;99.90
16437;DHT22;8328;52.206;21.006;2022-09-09T16:08:56;16.60;99.90
16437;DHT22;8328;52.206;21.006;2022-09-09T16:11:27;16.70;99.90
16437;DHT22;8328;52.206;21.006;2022-09-09T16:13:54;16.60;99.90
16437;DHT22;8328;52.206;21.006;2022-09-09T16:16:26;16.60;99.90
16437;DHT22;8328;52.206;21.006;2022-09-09T16:18:57;16.50;99.90
16437;DHT22;8328;52.206;21.006;2022-09-09T16:21:29;16.50;99.90
16437;DHT22;8328;52.206;21.006;2022-09-09T16:23:56;16.30;99.90
16437;DHT22;8328;52.206;21.006;2022-09-09T16:26:23;16.30;99.90
16437;DHT22;8328;52.206;21.006;2022-09-09T16:28:49;16.10;99.90
16437;DHT22;8328;52.206;21.006;2022-09-09T16:31:21;16.10;99.90
16437;DHT22;8328;52.206;21.006;2022-09-09T16:33:48;16.00;99.90
16437;DHT22;8328;52.206;21.006;2022-09-09T16:36:25;16.00;99.90
16437;DHT22;8328;52.206;21.006;2022-09-09T16:38:55;15.90;99.90
16437;DHT22;8328;52.206;21.006;2022-09-09T16:41:22;15.80;99.90
16437;DHT22;8328;52.206;21.006;2022-09-09T16:43:55;15.80;99.90
16437;DHT22;8328;52.206;21.006;2022-09-09T16:46:22;15.80;99.90
16437;DHT22;8328;52.206;21.006;2022-09-09T16:48:48;15.70;99.90
16437;DHT22;8328;52.206;21.006;2022-09-09T16:51:18;15.70;99.90
16437;DHT22;8328;52.206;21.006;2022-09-09T16:53:45;15.60;99.90
16437;DHT22;8328;52.206;21.006;2022-09-09T16:56:23;15.60;99.90
16437;DHT22;8328;52.206;21.006;2022-09-09T16:58:54;15.50;99.90
16437;DHT22;8328;52.206;21.006;2022-09-09T17:01:25;15.50;99.90
16437;DHT22;8328;52.206;21.006;2022-09-09T17:03:54;15.40;99.90
16437;DHT22;8328;52.206;21.006;2022-09-09T17:06:21;15.30;99.90
16437;DHT22;8328;52.206;21.006;2022-09-09T17:08:47;15.30;99.90
16437;DHT22;8328;52.206;21.006;2022-09-09T17:11:15;15.20;99.90
16437;DHT22;8328;52.206;21.006;2022-09-09T17:13:42;15.20;99.90
16437;DHT22;8328;52.206;21.006;2022-09-09T17:16:09;15.20;99.90
16437;DHT22;8328;52.206;21.006;2022-09-09T17:18:36;15.10;99.90
16437;DHT22;8328;52.206;21.006;2022-09-09T17:21:04;15.10;99.90
16437;DHT22;8328;52.206;21.006;2022-09-09T17:23:30;15.10;99.90
16437;DHT22;8328;52.206;21.006;2022-09-09T17:25:57;15.10;99.90
16437;DHT22;8328;52.206;21.006;2022-09-09T17:28:23;15.10;99.90
16437;DHT22;8328;52.206;21.006;2022-09-09T17:30:53;15.10;99.90
16437;DHT22;8328;52.206;21.006;2022-09-09T17:33:19;15.10;99.90
16437;DHT22;8328;52.206;21.006;2022-09-09T17:35:46;15.10;99.90
16437;DHT22;8328;52.206;21.006;2022-09-09T17:38:13;15.10;99.90
16437;DHT22;8328;52.206;21.006;2022-09-09T17:40:39;15.10;99.90
16437;DHT22;8328;52.206;21.006;2022-09-09T17:43:05;15.10;99.90
16437;DHT22;8328;52.206;21.006;2022-09-09T17:45:31;15.10;99.90
16437;DHT22;8328;52.206;21.006;2022-09-09T17:47:57;15.20;99.90
16437;DHT22;8328;52.206;21.006;2022-09-09T17:50:23;15.10;99.90
16437;DHT22;8328;52.206;21.006;2022-09-09T17:52:48;15.10;99.90